sensor_id;sensor_type;location;lat;lon;timestamp;P1;durP1;ratioP1;P2;durP2;ratioP2
7128;SDS011;3606;52.930;8.644;2023-04-24T00:00:23;4.40;;;3.40;;
7128;SDS011;3606;52.930;8.644;2023-04-24T00:02:49;3.57;;;2.93;;
7128;SDS011;3606;52.930;8.644;2023-04-24T00:05:15;4.60;;;3.17;;
7128;SDS011;3606;52.930;8.644;2023-04-24T00:07:43;3.87;;;3.00;;
7128;SDS011;3606;52.930;8.644;2023-04-24T00:10:10;3.20;;;2.90;;
7128;SDS011;3606;52.930;8.644;2023-04-24T00:12:37;4.47;;;3.20;;
7128;SDS011;3606;52.930;8.644;2023-04-24T00:15:02;3.40;;;3.00;;
7128;SDS011;3606;52.930;8.644;2023-04-24T00:17:29;3.50;;;3.20;;
7128;SDS011;3606;52.930;8.644;2023-04-24T00:19:55;3.13;;;2.50;;
7128;SDS011;3606;52.930;8.644;2023-04-24T00:22:23;3.33;;;2.27;;
7128;SDS011;3606;52.930;8.644;2023-04-24T00:24:50;2.03;;;1.93;;
7128;SDS011;3606;52.930;8.644;2023-04-24T00:27:15;1.93;;;1.73;;
7128;SDS011;3606;52.930;8.644;2023-04-24T00:29:41;1.73;;;1.63;;
7128;SDS011;3606;52.930;8.644;2023-04-24T00:32:07;2.00;;;1.87;;
7128;SDS011;3606;52.930;8.644;2023-04-24T00:34:32;2.17;;;1.63;;
7128;SDS011;3606;52.930;8.644;2023-04-24T00:36:58;1.80;;;1.70;;
7128;SDS011;3606;52.930;8.644;2023-04-24T00:39:23;2.23;;;2.03;;
7128;SDS011;3606;52.930;8.644;2023-04-24T00:41:49;2.10;;;1.90;;
7128;SDS011;3606;52.930;8.644;2023-04-24T00:44:16;1.73;;;1.63;;
7128;SDS011;3606;52.930;8.644;2023-04-24T00:46:42;2.20;;;2.00;;
7128;SDS011;3606;52.930;8.644;2023-04-24T00:49:07;2.23;;;1.90;;
7128;SDS011;3606;52.930;8.644;2023-04-24T00:51:33;2.50;;;2.20;;
7128;SDS011;3606;52.930;8.644;2023-04-24T00:53:59;2.40;;;2.20;;
7128;SDS011;3606;52.930;8.644;2023-04-24T00:56:26;2.17;;;2.07;;
7128;SDS011;3606;52.930;8.644;2023-04-24T00:58:52;2.47;;;2.20;;
7128;SDS011;3606;52.930;8.644;2023-04-24T01:01:19;2.33;;;2.13;;
7128;SDS011;3606;52.930;8.644;2023-04-24T01:03:46;2.80;;;2.50;;
7128;SDS011;3606;52.930;8.644;2023-04-24T01:06:13;1.77;;;1.67;;
7128;SDS011;3606;52.930;8.644;2023-04-24T01:08:40;2.87;;;2.13;;
7128;SDS011;3606;52.930;8.644;2023-04-24T01:11:06;3.10;;;2.17;;
7128;SDS011;3606;52.930;8.644;2023-04-24T01:13:32;2.20;;;2.00;;
7128;SDS011;3606;52.930;8.644;2023-04-24T01:15:58;4.90;;;2.33;;
7128;SDS011;3606;52.930;8.644;2023-04-24T01:18:25;1.93;;;1.83;;
7128;SDS011;3606;52.930;8.644;2023-04-24T01:20:52;2.43;;;2.23;;
7128;SDS011;3606;52.930;8.644;2023-04-24T01:23:19;2.10;;;1.93;;
7128;SDS011;3606;52.930;8.644;2023-04-24T01:25:45;2.17;;;1.97;;
7128;SDS011;3606;52.930;8.644;2023-04-24T01:28:11;2.27;;;2.07;;
7128;SDS011;3606;52.930;8.644;2023-04-24T01:30:37;2.40;;;2.20;;
7128;SDS011;3606;52.930;8.644;2023-04-24T01:33:03;2.03;;;1.87;;
7128;SDS011;3606;52.930;8.644;2023-04-24T01:35:29;2.20;;;2.00;;
7128;SDS011;3606;52.930;8.644;2023-04-24T01:37:55;2.40;;;1.90;;
7128;SDS011;3606;52.930;8.644;2023-04-24T01:40:20;2.23;;;2.00;;
7128;SDS011;3606;52.930;8.644;2023-04-24T01:42:46;2.30;;;2.10;;
7128;SDS011;3606;52.930;8.644;2023-04-24T01:45:12;2.93;;;2.10;;
7128;SDS011;3606;52.930;8.644;2023-04-24T01:47:38;2.20;;;2.00;;
7128;SDS011;3606;52.930;8.644;2023-04-24T01:50:04;2.73;;;1.90;;
7128;SDS011;3606;52.930;8.644;2023-04-24T01:52:30;2.30;;;2.10;;
7128;SDS011;3606;52.930;8.644;2023-04-24T01:54:59;2.20;;;1.87;;
7128;SDS011;3606;52.930;8.644;2023-04-24T01:57:25;2.17;;;2.00;;
7128;SDS011;3606;52.930;8.644;2023-04-24T01:59:51;2.30;;;2.10;;
7128;SDS011;3606;52.930;8.644;2023-04-24T02:02:16;2.33;;;2.13;;
7128;SDS011;3606;52.930;8.644;2023-04-24T02:04:42;2.80;;;2.07;;
7128;SDS011;3606;52.930;8.644;2023-04-24T02:07:07;2.30;;;2.10;;
7128;SDS011;3606;52.930;8.644;2023-04-24T02:09:33;2.60;;;2.40;;
7128;SDS011;3606;52.930;8.644;2023-04-24T02:11:59;2.70;;;2.50;;
7128;SDS011;3606;52.930;8.644;2023-04-24T02:14:25;4.33;;;2.73;;
7128;SDS011;3606;52.930;8.644;2023-04-24T02:16:51;3.80;;;3.33;;
7128;SDS011;3606;52.930;8.644;2023-04-24T02:19:16;6.07;;;3.23;;
7128;SDS011;3606;52.930;8.644;2023-04-24T02:21:42;3.57;;;3.27;;
7128;SDS011;3606;52.930;8.644;2023-04-24T02:24:07;3.70;;;3.40;;
7128;SDS011;3606;52.930;8.644;2023-04-24T02:26:33;4.53;;;4.13;;
7128;SDS011;3606;52.930;8.644;2023-04-24T02:28:59;5.27;;;3.60;;
7128;SDS011;3606;52.930;8.644;2023-04-24T02:31:25;4.07;;;3.67;;
7128;SDS011;3606;52.930;8.644;2023-04-24T02:33:50;3.80;;;3.50;;
7128;SDS011;3606;52.930;8.644;2023-04-24T02:36:16;8.30;;;3.80;;
7128;SDS011;3606;52.930;8.644;2023-04-24T02:38:41;3.53;;;3.07;;
7128;SDS011;3606;52.930;8.644;2023-04-24T02:41:07;5.00;;;3.80;;
7128;SDS011;3606;52.930;8.644;2023-04-24T02:43:33;4.37;;;3.70;;
7128;SDS011;3606;52.930;8.644;2023-04-24T02:45:58;3.90;;;3.50;;
7128;SDS011;3606;52.930;8.644;2023-04-24T02:48:24;6.23;;;3.60;;
7128;SDS011;3606;52.930;8.644;2023-04-24T02:50:50;3.57;;;3.27;;
7128;SDS011;3606;52.930;8.644;2023-04-24T02:53:16;4.30;;;3.90;;
7128;SDS011;3606;52.930;8.644;2023-04-24T02:55:41;4.30;;;3.90;;
7128;SDS011;3606;52.930;8.644;2023-04-24T02:58:07;4.27;;;3.87;;
7128;SDS011;3606;52.930;8.644;2023-04-24T03:00:33;4.17;;;3.77;;
7128;SDS011;3606;52.930;8.644;2023-04-24T03:02:59;4.00;;;3.70;;
7128;SDS011;3606;52.930;8.644;2023-04-24T03:05:24;6.73;;;3.77;;
7128;SDS011;3606;52.930;8.644;2023-04-24T03:07:50;3.60;;;3.30;;
7128;SDS011;3606;52.930;8.644;2023-04-24T03:10:17;4.33;;;3.30;;
7128;SDS011;3606;52.930;8.644;2023-04-24T03:12:43;4.93;;;3.50;;
7128;SDS011;3606;52.930;8.644;2023-04-24T03:15:09;3.60;;;3.30;;
7128;SDS011;3606;52.930;8.644;2023-04-24T03:17:34;5.07;;;3.40;;
7128;SDS011;3606;52.930;8.644;2023-04-24T03:20:00;3.93;;;3.30;;
7128;SDS011;3606;52.930;8.644;2023-04-24T03:22:26;3.70;;;2.80;;
7128;SDS011;3606;52.930;8.644;2023-04-24T03:24:51;2.77;;;2.57;;
7128;SDS011;3606;52.930;8.644;2023-04-24T03:27:17;4.73;;;3.13;;
7128;SDS011;3606;52.930;8.644;2023-04-24T03:29:43;3.30;;;3.00;;
7128;SDS011;3606;52.930;8.644;2023-04-24T03:32:08;3.40;;;3.00;;
7128;SDS011;3606;52.930;8.644;2023-04-24T03:34:34;3.10;;;2.80;;
7128;SDS011;3606;52.930;8.644;2023-04-24T03:36:59;3.53;;;2.80;;
7128;SDS011;3606;52.930;8.644;2023-04-24T03:39:25;2.60;;;2.40;;
7128;SDS011;3606;52.930;8.644;2023-04-24T03:41:51;3.00;;;2.70;;
7128;SDS011;3606;52.930;8.644;2023-04-24T03:44:16;3.30;;;2.70;;
7128;SDS011;3606;52.930;8.644;2023-04-24T03:46:42;3.93;;;2.70;;
7128;SDS011;3606;52.930;8.644;2023-04-24T03:49:07;3.00;;;2.50;;
7128;SDS011;3606;52.930;8.644;2023-04-24T03:51:33;3.67;;;2.53;;
7128;SDS011;3606;52.930;8.644;2023-04-24T03:53:58;2.80;;;2.60;;
7128;SDS011;3606;52.930;8.644;2023-04-24T03:56:24;3.03;;;2.73;;
7128;SDS011;3606;52.930;8.644;2023-04-24T03:58:50;4.03;;;2.50;;
7128;SDS011;3606;52.930;8.644;2023-04-24T04:01:15;2.70;;;2.50;;
7128;SDS011;3606;52.930;8.644;2023-04-24T04:03:41;2.97;;;2.70;;
7128;SDS011;3606;52.930;8.644;2023-04-24T04:06:06;3.47;;;2.57;;
7128;SDS011;3606;52.930;8.644;2023-04-24T04:08:32;3.03;;;2.80;;
7128;SDS011;3606;52.930;8.644;2023-04-24T04:10:58;3.20;;;2.70;;
7128;SDS011;3606;52.930;8.644;2023-04-24T04:13:23;3.37;;;2.80;;
7128;SDS011;3606;52.930;8.644;2023-04-24T04:15:49;3.27;;;2.97;;
7128;SDS011;3606;52.930;8.644;2023-04-24T04:18:14;4.63;;;2.50;;
7128;SDS011;3606;52.930;8.644;2023-04-24T04:20:40;2.80;;;2.60;;
7128;SDS011;3606;52.930;8.644;2023-04-24T04:23:06;2.80;;;2.60;;
7128;SDS011;3606;52.930;8.644;2023-04-24T04:25:31;3.17;;;2.87;;
7128;SDS011;3606;52.930;8.644;2023-04-24T04:27:57;3.07;;;2.53;;
7128;SDS011;3606;52.930;8.644;2023-04-24T04:30:24;2.60;;;2.40;;
7128;SDS011;3606;52.930;8.644;2023-04-24T04:32:50;4.57;;;2.40;;
7128;SDS011;3606;52.930;8.644;2023-04-24T04:35:16;3.30;;;2.50;;
7128;SDS011;3606;52.930;8.644;2023-04-24T04:37:42;3.43;;;2.67;;
7128;SDS011;3606;52.930;8.644;2023-04-24T04:40:07;2.47;;;2.27;;
7128;SDS011;3606;52.930;8.644;2023-04-24T04:42:36;4.10;;;2.33;;
7128;SDS011;3606;52.930;8.644;2023-04-24T04:45:05;4.00;;;2.70;;
7128;SDS011;3606;52.930;8.644;2023-04-24T04:47:33;4.70;;;2.90;;
7128;SDS011;3606;52.930;8.644;2023-04-24T04:49:59;2.60;;;2.40;;
7128;SDS011;3606;52.930;8.644;2023-04-24T04:52:26;5.90;;;2.33;;
7128;SDS011;3606;52.930;8.644;2023-04-24T04:54:52;3.27;;;2.40;;
7128;SDS011;3606;52.930;8.644;2023-04-24T04:57:17;3.57;;;2.37;;
7128;SDS011;3606;52.930;8.644;2023-04-24T04:59:43;2.90;;;2.50;;
7128;SDS011;3606;52.930;8.644;2023-04-24T05:02:09;4.13;;;2.47;;
7128;SDS011;3606;52.930;8.644;2023-04-24T05:04:35;2.90;;;2.60;;
7128;SDS011;3606;52.930;8.644;2023-04-24T05:07:00;3.17;;;2.60;;
7128;SDS011;3606;52.930;8.644;2023-04-24T05:09:26;4.10;;;2.57;;
7128;SDS011;3606;52.930;8.644;2023-04-24T05:11:53;3.17;;;2.70;;
7128;SDS011;3606;52.930;8.644;2023-04-24T05:14:19;4.30;;;2.90;;
7128;SDS011;3606;52.930;8.644;2023-04-24T05:16:45;3.17;;;2.93;;
7128;SDS011;3606;52.930;8.644;2023-04-24T05:19:11;6.83;;;3.30;;
7128;SDS011;3606;52.930;8.644;2023-04-24T05:21:38;3.20;;;2.90;;
7128;SDS011;3606;52.930;8.644;2023-04-24T05:24:05;4.50;;;3.27;;
7128;SDS011;3606;52.930;8.644;2023-04-24T05:26:31;3.50;;;3.20;;
7128;SDS011;3606;52.930;8.644;2023-04-24T05:28:56;4.10;;;3.60;;
7128;SDS011;3606;52.930;8.644;2023-04-24T05:31:22;5.50;;;3.50;;
7128;SDS011;3606;52.930;8.644;2023-04-24T05:33:48;3.87;;;3.43;;
7128;SDS011;3606;52.930;8.644;2023-04-24T05:36:13;4.07;;;3.47;;
7128;SDS011;3606;52.930;8.644;2023-04-24T05:38:39;5.10;;;3.57;;
7128;SDS011;3606;52.930;8.644;2023-04-24T05:41:05;5.13;;;3.47;;
7128;SDS011;3606;52.930;8.644;2023-04-24T05:43:31;4.13;;;3.30;;
7128;SDS011;3606;52.930;8.644;2023-04-24T05:45:56;5.57;;;3.80;;
7128;SDS011;3606;52.930;8.644;2023-04-24T05:48:22;3.57;;;3.27;;
7128;SDS011;3606;52.930;8.644;2023-04-24T05:50:48;4.40;;;4.00;;
7128;SDS011;3606;52.930;8.644;2023-04-24T05:53:14;4.70;;;4.20;;
7128;SDS011;3606;52.930;8.644;2023-04-24T05:55:39;4.60;;;3.90;;
7128;SDS011;3606;52.930;8.644;2023-04-24T05:58:05;5.63;;;5.03;;
7128;SDS011;3606;52.930;8.644;2023-04-24T06:00:31;5.47;;;4.63;;
7128;SDS011;3606;52.930;8.644;2023-04-24T06:02:59;5.73;;;5.07;;
7128;SDS011;3606;52.930;8.644;2023-04-24T06:05:25;5.90;;;5.20;;
7128;SDS011;3606;52.930;8.644;2023-04-24T06:07:51;6.00;;;5.40;;
7128;SDS011;3606;52.930;8.644;2023-04-24T06:10:17;7.77;;;6.20;;
7128;SDS011;3606;52.930;8.644;2023-04-24T06:12:42;7.93;;;6.63;;
7128;SDS011;3606;52.930;8.644;2023-04-24T06:15:08;7.67;;;6.57;;
7128;SDS011;3606;52.930;8.644;2023-04-24T06:17:34;8.77;;;6.70;;
7128;SDS011;3606;52.930;8.644;2023-04-24T06:20:00;8.40;;;7.00;;
7128;SDS011;3606;52.930;8.644;2023-04-24T06:22:25;8.30;;;6.93;;
7128;SDS011;3606;52.930;8.644;2023-04-24T06:24:51;9.47;;;7.17;;
7128;SDS011;3606;52.930;8.644;2023-04-24T06:27:17;9.67;;;7.60;;
7128;SDS011;3606;52.930;8.644;2023-04-24T06:29:42;11.57;;;8.60;;
7128;SDS011;3606;52.930;8.644;2023-04-24T06:32:08;8.27;;;7.47;;
7128;SDS011;3606;52.930;8.644;2023-04-24T06:34:33;10.03;;;8.30;;
7128;SDS011;3606;52.930;8.644;2023-04-24T06:37:00;10.30;;;7.83;;
7128;SDS011;3606;52.930;8.644;2023-04-24T06:39:26;10.53;;;8.10;;
7128;SDS011;3606;52.930;8.644;2023-04-24T06:41:51;11.40;;;8.87;;
7128;SDS011;3606;52.930;8.644;2023-04-24T06:44:17;9.27;;;7.87;;
7128;SDS011;3606;52.930;8.644;2023-04-24T06:46:42;9.27;;;7.97;;
7128;SDS011;3606;52.930;8.644;2023-04-24T06:49:08;9.93;;;7.70;;
7128;SDS011;3606;52.930;8.644;2023-04-24T06:51:34;11.23;;;8.47;;
7128;SDS011;3606;52.930;8.644;2023-04-24T06:53:59;11.23;;;8.17;;
7128;SDS011;3606;52.930;8.644;2023-04-24T06:56:25;10.13;;;8.37;;
7128;SDS011;3606;52.930;8.644;2023-04-24T06:58:51;8.43;;;7.17;;
7128;SDS011;3606;52.930;8.644;2023-04-24T07:01:17;11.40;;;8.60;;
7128;SDS011;3606;52.930;8.644;2023-04-24T07:03:42;11.00;;;8.10;;
7128;SDS011;3606;52.930;8.644;2023-04-24T07:06:08;9.00;;;7.57;;
7128;SDS011;3606;52.930;8.644;2023-04-24T07:08:35;9.60;;;7.77;;
7128;SDS011;3606;52.930;8.644;2023-04-24T07:11:01;10.83;;;7.20;;
7128;SDS011;3606;52.930;8.644;2023-04-24T07:13:27;8.60;;;7.10;;
7128;SDS011;3606;52.930;8.644;2023-04-24T07:15:53;9.20;;;7.30;;
7128;SDS011;3606;52.930;8.644;2023-04-24T07:18:20;10.87;;;7.33;;
7128;SDS011;3606;52.930;8.644;2023-04-24T07:20:46;9.20;;;7.20;;
7128;SDS011;3606;52.930;8.644;2023-04-24T07:23:11;10.97;;;7.20;;
7128;SDS011;3606;52.930;8.644;2023-04-24T07:25:37;8.90;;;6.97;;
7128;SDS011;3606;52.930;8.644;2023-04-24T07:28:04;9.10;;;7.23;;
7128;SDS011;3606;52.930;8.644;2023-04-24T07:30:30;7.27;;;6.37;;
7128;SDS011;3606;52.930;8.644;2023-04-24T07:32:57;7.70;;;6.73;;
7128;SDS011;3606;52.930;8.644;2023-04-24T07:35:23;10.60;;;7.00;;
7128;SDS011;3606;52.930;8.644;2023-04-24T07:37:50;8.10;;;7.00;;
7128;SDS011;3606;52.930;8.644;2023-04-24T07:40:19;7.43;;;6.30;;
7128;SDS011;3606;52.930;8.644;2023-04-24T07:42:45;8.60;;;6.80;;
7128;SDS011;3606;52.930;8.644;2023-04-24T07:45:13;10.30;;;7.40;;
7128;SDS011;3606;52.930;8.644;2023-04-24T07:47:39;9.70;;;6.97;;
7128;SDS011;3606;52.930;8.644;2023-04-24T07:50:08;12.30;;;6.83;;
7128;SDS011;3606;52.930;8.644;2023-04-24T07:52:34;7.97;;;6.57;;
7128;SDS011;3606;52.930;8.644;2023-04-24T07:55:00;10.30;;;7.67;;
7128;SDS011;3606;52.930;8.644;2023-04-24T07:57:27;10.20;;;7.60;;
7128;SDS011;3606;52.930;8.644;2023-04-24T07:59:53;7.73;;;6.70;;
7128;SDS011;3606;52.930;8.644;2023-04-24T08:02:20;8.70;;;7.20;;
7128;SDS011;3606;52.930;8.644;2023-04-24T08:04:51;8.70;;;6.73;;
7128;SDS011;3606;52.930;8.644;2023-04-24T08:07:19;9.57;;;6.60;;
7128;SDS011;3606;52.930;8.644;2023-04-24T08:09:45;7.63;;;6.00;;
7128;SDS011;3606;52.930;8.644;2023-04-24T08:12:10;13.43;;;7.10;;
7128;SDS011;3606;52.930;8.644;2023-04-24T08:14:36;7.97;;;6.80;;
7128;SDS011;3606;52.930;8.644;2023-04-24T08:17:01;11.53;;;7.30;;
7128;SDS011;3606;52.930;8.644;2023-04-24T08:19:28;12.17;;;8.00;;
7128;SDS011;3606;52.930;8.644;2023-04-24T08:21:54;9.13;;;7.30;;
7128;SDS011;3606;52.930;8.644;2023-04-24T08:24:19;9.73;;;7.70;;
7128;SDS011;3606;52.930;8.644;2023-04-24T08:26:45;10.33;;;7.77;;
7128;SDS011;3606;52.930;8.644;2023-04-24T08:29:10;12.17;;;7.97;;
7128;SDS011;3606;52.930;8.644;2023-04-24T08:31:36;8.43;;;7.57;;
7128;SDS011;3606;52.930;8.644;2023-04-24T08:34:02;14.30;;;8.50;;
7128;SDS011;3606;52.930;8.644;2023-04-24T08:36:27;12.20;;;8.63;;
7128;SDS011;3606;52.930;8.644;2023-04-24T08:38:53;12.20;;;8.00;;
7128;SDS011;3606;52.930;8.644;2023-04-24T08:41:19;11.23;;;7.70;;
7128;SDS011;3606;52.930;8.644;2023-04-24T08:43:47;9.77;;;8.07;;
7128;SDS011;3606;52.930;8.644;2023-04-24T08:46:13;11.60;;;8.60;;
7128;SDS011;3606;52.930;8.644;2023-04-24T08:48:40;10.30;;;8.60;;
7128;SDS011;3606;52.930;8.644;2023-04-24T08:51:09;11.80;;;9.17;;
7128;SDS011;3606;52.930;8.644;2023-04-24T08:53:35;14.07;;;10.17;;
7128;SDS011;3606;52.930;8.644;2023-04-24T08:56:01;12.80;;;10.43;;
7128;SDS011;3606;52.930;8.644;2023-04-24T08:58:27;16.83;;;9.70;;
7128;SDS011;3606;52.930;8.644;2023-04-24T09:00:54;13.03;;;10.03;;
7128;SDS011;3606;52.930;8.644;2023-04-24T09:03:20;13.90;;;10.77;;
7128;SDS011;3606;52.930;8.644;2023-04-24T09:05:47;14.13;;;9.80;;
7128;SDS011;3606;52.930;8.644;2023-04-24T09:08:16;10.47;;;9.33;;
7128;SDS011;3606;52.930;8.644;2023-04-24T09:10:43;14.60;;;9.43;;
7128;SDS011;3606;52.930;8.644;2023-04-24T09:13:09;11.90;;;9.93;;
7128;SDS011;3606;52.930;8.644;2023-04-24T09:15:36;13.97;;;10.30;;
7128;SDS011;3606;52.930;8.644;2023-04-24T09:18:02;12.80;;;10.03;;
7128;SDS011;3606;52.930;8.644;2023-04-24T09:20:29;12.27;;;10.17;;
7128;SDS011;3606;52.930;8.644;2023-04-24T09:22:56;12.13;;;9.40;;
7128;SDS011;3606;52.930;8.644;2023-04-24T09:25:23;11.73;;;9.33;;
7128;SDS011;3606;52.930;8.644;2023-04-24T09:27:59;13.87;;;9.93;;
7128;SDS011;3606;52.930;8.644;2023-04-24T09:30:27;16.00;;;9.60;;
7128;SDS011;3606;52.930;8.644;2023-04-24T09:33:12;15.27;;;9.90;;
7128;SDS011;3606;52.930;8.644;2023-04-24T09:35:42;13.17;;;9.50;;
7128;SDS011;3606;52.930;8.644;2023-04-24T09:38:14;12.20;;;9.40;;
7128;SDS011;3606;52.930;8.644;2023-04-24T09:40:40;12.23;;;9.57;;
7128;SDS011;3606;52.930;8.644;2023-04-24T09:43:09;10.43;;;9.30;;
7128;SDS011;3606;52.930;8.644;2023-04-24T09:45:36;12.83;;;8.73;;
7128;SDS011;3606;52.930;8.644;2023-04-24T09:48:05;11.40;;;8.37;;
7128;SDS011;3606;52.930;8.644;2023-04-24T09:50:34;10.10;;;9.00;;
7128;SDS011;3606;52.930;8.644;2023-04-24T09:53:04;12.03;;;9.70;;
7128;SDS011;3606;52.930;8.644;2023-04-24T09:55:33;11.03;;;8.70;;
7128;SDS011;3606;52.930;8.644;2023-04-24T09:58:04;11.50;;;8.80;;
7128;SDS011;3606;52.930;8.644;2023-04-24T10:00:33;11.20;;;8.67;;
7128;SDS011;3606;52.930;8.644;2023-04-24T10:03:00;11.27;;;7.83;;
7128;SDS011;3606;52.930;8.644;2023-04-24T10:05:31;11.50;;;8.83;;
7128;SDS011;3606;52.930;8.644;2023-04-24T10:08:02;13.57;;;9.07;;
7128;SDS011;3606;52.930;8.644;2023-04-24T10:10:33;11.13;;;8.50;;
7128;SDS011;3606;52.930;8.644;2023-04-24T10:13:01;13.37;;;9.93;;
7128;SDS011;3606;52.930;8.644;2023-04-24T10:15:28;10.90;;;8.57;;
7128;SDS011;3606;52.930;8.644;2023-04-24T10:17:55;10.70;;;8.73;;
7128;SDS011;3606;52.930;8.644;2023-04-24T10:20:24;11.97;;;9.00;;
7128;SDS011;3606;52.930;8.644;2023-04-24T10:22:54;9.70;;;8.70;;
7128;SDS011;3606;52.930;8.644;2023-04-24T10:25:21;9.53;;;8.37;;
7128;SDS011;3606;52.930;8.644;2023-04-24T10:27:49;8.90;;;8.00;;
7128;SDS011;3606;52.930;8.644;2023-04-24T10:30:16;10.07;;;7.80;;
7128;SDS011;3606;52.930;8.644;2023-04-24T10:32:43;7.63;;;6.83;;
7128;SDS011;3606;52.930;8.644;2023-04-24T10:35:09;8.23;;;7.27;;
7128;SDS011;3606;52.930;8.644;2023-04-24T10:37:37;9.17;;;6.90;;
7128;SDS011;3606;52.930;8.644;2023-04-24T10:40:06;7.77;;;6.33;;
7128;SDS011;3606;52.930;8.644;2023-04-24T10:42:33;7.40;;;6.70;;
7128;SDS011;3606;52.930;8.644;2023-04-24T10:45:04;7.33;;;5.90;;
7128;SDS011;3606;52.930;8.644;2023-04-24T10:47:39;6.53;;;5.63;;
7128;SDS011;3606;52.930;8.644;2023-04-24T10:50:14;7.87;;;6.60;;
7128;SDS011;3606;52.930;8.644;2023-04-24T10:52:47;6.63;;;6.03;;
7128;SDS011;3606;52.930;8.644;2023-04-24T10:55:16;6.23;;;5.67;;
7128;SDS011;3606;52.930;8.644;2023-04-24T10:58:02;6.93;;;5.80;;
7128;SDS011;3606;52.930;8.644;2023-04-24T11:00:28;7.77;;;5.37;;
7128;SDS011;3606;52.930;8.644;2023-04-24T11:02:54;5.27;;;4.70;;
7128;SDS011;3606;52.930;8.644;2023-04-24T11:05:21;5.60;;;4.93;;
7128;SDS011;3606;52.930;8.644;2023-04-24T11:10:40;5.43;;;4.93;;
7128;SDS011;3606;52.930;8.644;2023-04-24T11:13:09;5.53;;;4.97;;
7128;SDS011;3606;52.930;8.644;2023-04-24T11:15:34;5.13;;;4.50;;
7128;SDS011;3606;52.930;8.644;2023-04-24T11:18:00;7.83;;;4.30;;
7128;SDS011;3606;52.930;8.644;2023-04-24T11:20:26;5.40;;;4.90;;
7128;SDS011;3606;52.930;8.644;2023-04-24T11:22:52;5.57;;;4.87;;
7128;SDS011;3606;52.930;8.644;2023-04-24T11:25:19;6.00;;;5.10;;
7128;SDS011;3606;52.930;8.644;2023-04-24T11:27:47;6.10;;;5.27;;
7128;SDS011;3606;52.930;8.644;2023-04-24T11:30:18;5.93;;;5.33;;
7128;SDS011;3606;52.930;8.644;2023-04-24T11:32:50;5.70;;;5.10;;
7128;SDS011;3606;52.930;8.644;2023-04-24T11:35:22;5.73;;;5.10;;
7128;SDS011;3606;52.930;8.644;2023-04-24T11:37:53;6.40;;;5.80;;
7128;SDS011;3606;52.930;8.644;2023-04-24T11:40:19;8.63;;;7.00;;
7128;SDS011;3606;52.930;8.644;2023-04-24T11:42:47;8.97;;;7.43;;
7128;SDS011;3606;52.930;8.644;2023-04-24T11:45:20;7.17;;;6.27;;
7128;SDS011;3606;52.930;8.644;2023-04-24T11:47:51;7.50;;;6.73;;
7128;SDS011;3606;52.930;8.644;2023-04-24T11:50:19;7.90;;;6.90;;
7128;SDS011;3606;52.930;8.644;2023-04-24T11:52:48;7.53;;;6.80;;
7128;SDS011;3606;52.930;8.644;2023-04-24T11:57:44;10.30;;;8.17;;
7128;SDS011;3606;52.930;8.644;2023-04-24T12:00:18;11.40;;;7.60;;
7128;SDS011;3606;52.930;8.644;2023-04-24T12:02:45;10.93;;;8.27;;
7128;SDS011;3606;52.930;8.644;2023-04-24T12:05:24;18.10;;;11.40;;
7128;SDS011;3606;52.930;8.644;2023-04-24T12:07:51;19.93;;;12.40;;
7128;SDS011;3606;52.930;8.644;2023-04-24T12:10:25;12.30;;;9.27;;
7128;SDS011;3606;52.930;8.644;2023-04-24T12:12:53;11.13;;;7.83;;
7128;SDS011;3606;52.930;8.644;2023-04-24T12:15:20;10.40;;;8.30;;
7128;SDS011;3606;52.930;8.644;2023-04-24T12:17:46;8.70;;;7.30;;
7128;SDS011;3606;52.930;8.644;2023-04-24T12:20:12;11.00;;;7.90;;
7128;SDS011;3606;52.930;8.644;2023-04-24T12:22:45;10.17;;;7.57;;
7128;SDS011;3606;52.930;8.644;2023-04-24T12:25:11;8.73;;;7.47;;
7128;SDS011;3606;52.930;8.644;2023-04-24T12:27:37;8.27;;;6.23;;
7128;SDS011;3606;52.930;8.644;2023-04-24T12:30:04;6.53;;;5.93;;
7128;SDS011;3606;52.930;8.644;2023-04-24T12:32:30;6.37;;;5.73;;
7128;SDS011;3606;52.930;8.644;2023-04-24T12:34:56;7.07;;;6.20;;
7128;SDS011;3606;52.930;8.644;2023-04-24T12:37:23;6.10;;;4.30;;
7128;SDS011;3606;52.930;8.644;2023-04-24T12:42:27;5.00;;;4.50;;
7128;SDS011;3606;52.930;8.644;2023-04-24T12:45:03;9.47;;;5.73;;
7128;SDS011;3606;52.930;8.644;2023-04-24T12:47:31;13.57;;;8.17;;
7128;SDS011;3606;52.930;8.644;2023-04-24T12:49:58;14.20;;;9.07;;
7128;SDS011;3606;52.930;8.644;2023-04-24T12:52:25;14.57;;;9.00;;
7128;SDS011;3606;52.930;8.644;2023-04-24T12:54:55;15.00;;;9.53;;
7128;SDS011;3606;52.930;8.644;2023-04-24T12:57:22;14.90;;;10.10;;
7128;SDS011;3606;52.930;8.644;2023-04-24T12:59:49;17.30;;;10.37;;
7128;SDS011;3606;52.930;8.644;2023-04-24T13:02:15;18.23;;;10.60;;
7128;SDS011;3606;52.930;8.644;2023-04-24T13:04:44;17.23;;;10.00;;
7128;SDS011;3606;52.930;8.644;2023-04-24T13:07:11;20.37;;;13.87;;
7128;SDS011;3606;52.930;8.644;2023-04-24T13:09:38;18.73;;;11.63;;
7128;SDS011;3606;52.930;8.644;2023-04-24T13:12:04;13.73;;;10.13;;
7128;SDS011;3606;52.930;8.644;2023-04-24T13:14:30;15.03;;;8.43;;
7128;SDS011;3606;52.930;8.644;2023-04-24T13:16:56;13.83;;;8.53;;
7128;SDS011;3606;52.930;8.644;2023-04-24T13:19:23;11.07;;;8.53;;
7128;SDS011;3606;52.930;8.644;2023-04-24T13:21:50;14.47;;;7.70;;
7128;SDS011;3606;52.930;8.644;2023-04-24T13:24:16;8.63;;;6.27;;
7128;SDS011;3606;52.930;8.644;2023-04-24T13:26:42;10.50;;;7.60;;
7128;SDS011;3606;52.930;8.644;2023-04-24T13:29:07;15.40;;;6.50;;
7128;SDS011;3606;52.930;8.644;2023-04-24T13:31:33;26.37;;;14.67;;
7128;SDS011;3606;52.930;8.644;2023-04-24T13:34:00;16.93;;;12.47;;
7128;SDS011;3606;52.930;8.644;2023-04-24T13:36:26;9.80;;;6.50;;
7128;SDS011;3606;52.930;8.644;2023-04-24T13:38:51;10.57;;;7.00;;
7128;SDS011;3606;52.930;8.644;2023-04-24T13:41:17;12.37;;;6.33;;
7128;SDS011;3606;52.930;8.644;2023-04-24T13:43:42;8.33;;;6.20;;
7128;SDS011;3606;52.930;8.644;2023-04-24T13:46:08;11.03;;;6.00;;
7128;SDS011;3606;52.930;8.644;2023-04-24T13:48:34;8.70;;;6.40;;
7128;SDS011;3606;52.930;8.644;2023-04-24T13:50:59;8.40;;;5.60;;
7128;SDS011;3606;52.930;8.644;2023-04-24T13:53:25;7.70;;;5.37;;
7128;SDS011;3606;52.930;8.644;2023-04-24T13:55:51;7.90;;;5.10;;
7128;SDS011;3606;52.930;8.644;2023-04-24T13:58:16;10.63;;;5.70;;
7128;SDS011;3606;52.930;8.644;2023-04-24T14:00:42;7.63;;;4.53;;
7128;SDS011;3606;52.930;8.644;2023-04-24T14:03:08;8.93;;;5.27;;
7128;SDS011;3606;52.930;8.644;2023-04-24T14:05:33;7.03;;;4.87;;
7128;SDS011;3606;52.930;8.644;2023-04-24T14:07:59;6.53;;;5.33;;
7128;SDS011;3606;52.930;8.644;2023-04-24T14:10:25;9.87;;;5.50;;
7128;SDS011;3606;52.930;8.644;2023-04-24T14:12:52;6.27;;;4.73;;
7128;SDS011;3606;52.930;8.644;2023-04-24T14:15:18;11.70;;;5.23;;
7128;SDS011;3606;52.930;8.644;2023-04-24T14:17:44;10.03;;;5.20;;
7128;SDS011;3606;52.930;8.644;2023-04-24T14:20:09;9.33;;;4.80;;
7128;SDS011;3606;52.930;8.644;2023-04-24T14:22:37;9.70;;;4.83;;
7128;SDS011;3606;52.930;8.644;2023-04-24T14:25:03;7.07;;;4.90;;
7128;SDS011;3606;52.930;8.644;2023-04-24T14:27:30;7.30;;;4.13;;
7128;SDS011;3606;52.930;8.644;2023-04-24T14:29:57;11.17;;;5.30;;
7128;SDS011;3606;52.930;8.644;2023-04-24T14:32:23;9.37;;;5.17;;
7128;SDS011;3606;52.930;8.644;2023-04-24T14:34:48;10.83;;;5.50;;
7128;SDS011;3606;52.930;8.644;2023-04-24T14:37:14;9.93;;;5.50;;
7128;SDS011;3606;52.930;8.644;2023-04-24T14:39:40;8.57;;;5.40;;
7128;SDS011;3606;52.930;8.644;2023-04-24T14:42:05;10.90;;;5.97;;
7128;SDS011;3606;52.930;8.644;2023-04-24T14:44:31;10.67;;;6.67;;
7128;SDS011;3606;52.930;8.644;2023-04-24T14:46:58;10.47;;;6.37;;
7128;SDS011;3606;52.930;8.644;2023-04-24T14:49:23;11.77;;;6.63;;
7128;SDS011;3606;52.930;8.644;2023-04-24T14:51:49;7.93;;;5.77;;
7128;SDS011;3606;52.930;8.644;2023-04-24T14:54:15;9.27;;;6.17;;
7128;SDS011;3606;52.930;8.644;2023-04-24T14:56:40;7.50;;;5.50;;
7128;SDS011;3606;52.930;8.644;2023-04-24T14:59:07;6.00;;;4.87;;
7128;SDS011;3606;52.930;8.644;2023-04-24T15:01:33;7.43;;;4.70;;
7128;SDS011;3606;52.930;8.644;2023-04-24T15:03:58;10.87;;;5.37;;
7128;SDS011;3606;52.930;8.644;2023-04-24T15:06:24;9.00;;;5.03;;
7128;SDS011;3606;52.930;8.644;2023-04-24T15:08:50;7.37;;;5.03;;
7128;SDS011;3606;52.930;8.644;2023-04-24T15:11:15;6.50;;;4.53;;
7128;SDS011;3606;52.930;8.644;2023-04-24T15:13:41;8.97;;;4.10;;